createdAt,value
2018-05-18T00:00:07.530Z,7.47
2018-05-18T00:02:35.993Z,8.43
2018-05-18T00:05:05.204Z,8.20
2018-05-18T00:07:33.567Z,8.40
2018-05-18T00:10:01.960Z,7.63
2018-05-18T00:12:30.458Z,7.80
2018-05-18T00:14:58.810Z,8.90
2018-05-18T00:17:27.165Z,8.67
2018-05-18T00:19:57.764Z,9.37
2018-05-18T00:22:27.077Z,8.83
2018-05-18T00:24:55.413Z,9.00
2018-05-18T00:27:23.753Z,9.00
2018-05-18T00:29:52.871Z,8.80
2018-05-18T00:32:21.215Z,9.90
2018-05-18T00:34:50.418Z,9.43
2018-05-18T00:37:18.762Z,8.50
2018-05-18T00:39:47.345Z,8.40
2018-05-18T00:42:15.696Z,9.40
2018-05-18T00:44:44.921Z,8.77
2018-05-18T00:47:13.633Z,8.63
2018-05-18T00:49:41.972Z,7.90
2018-05-18T00:52:10.323Z,8.10
2018-05-18T00:54:39.477Z,8.03
2018-05-18T00:57:09.389Z,7.80
2018-05-18T00:59:37.765Z,7.23
2018-05-18T01:02:06.912Z,7.80
2018-05-18T01:04:36.050Z,7.17
2018-05-18T01:07:04.414Z,7.87
2018-05-18T01:09:32.844Z,8.97
2018-05-18T01:12:01.966Z,7.67
2018-05-18T01:14:30.811Z,7.80
2018-05-18T01:16:59.256Z,8.03
2018-05-18T01:19:27.600Z,7.70
2018-05-18T01:21:55.990Z,7.93
2018-05-18T01:24:25.065Z,8.73
2018-05-18T01:26:53.441Z,8.13
2018-05-18T01:29:23.280Z,7.63
2018-05-18T01:31:53.149Z,7.77
2018-05-18T01:34:21.519Z,7.37
2018-05-18T01:36:50.681Z,7.73
2018-05-18T01:39:19.091Z,8.03
2018-05-18T01:41:47.468Z,7.97
2018-05-18T01:44:16.092Z,7.23
2018-05-18T01:46:45.211Z,7.90
2018-05-18T01:49:13.535Z,8.20
2018-05-18T01:51:43.432Z,7.50
2018-05-18T01:54:11.752Z,8.17
2018-05-18T01:56:40.885Z,8.97
2018-05-18T01:59:09.253Z,6.83
2018-05-18T02:01:37.596Z,8.70
2018-05-18T02:04:05.923Z,8.63
2018-05-18T02:06:34.261Z,7.97
2018-05-18T02:09:05.683Z,8.13
2018-05-18T02:11:35.412Z,8.17
2018-05-18T02:14:03.845Z,7.37
2018-05-18T02:16:32.310Z,7.70
2018-05-18T02:19:00.651Z,8.57
2018-05-18T02:21:29.206Z,7.80
2018-05-18T02:23:58.362Z,6.90
2018-05-18T02:26:26.681Z,7.53
2018-05-18T02:28:55.038Z,7.23
2018-05-18T02:31:23.455Z,7.17
2018-05-18T02:33:52.539Z,7.03
2018-05-18T02:36:22.287Z,7.43
2018-05-18T02:38:52.055Z,7.10
2018-05-18T02:41:20.479Z,7.00
2018-05-18T02:43:49.617Z,6.87
2018-05-18T02:46:18.554Z,7.30
2018-05-18T02:48:47.181Z,7.27
2018-05-18T02:51:15.558Z,6.90
2018-05-18T02:53:43.915Z,6.80
2018-05-18T02:56:13.007Z,7.43
2018-05-18T02:58:42.209Z,6.77
2018-05-18T03:01:11.344Z,7.43
2018-05-18T03:03:41.148Z,7.80
2018-05-18T03:06:09.504Z,7.43
2018-05-18T03:08:37.918Z,8.50
2018-05-18T03:11:06.979Z,8.67
2018-05-18T03:13:36.782Z,8.70
2018-05-18T03:16:06.386Z,8.57
2018-05-18T03:18:35.463Z,8.97
2018-05-18T03:21:04.603Z,8.00
2018-05-18T03:23:34.016Z,8.63
2018-05-18T03:26:03.384Z,8.43
2018-05-18T03:28:32.519Z,8.43
2018-05-18T03:31:00.874Z,7.80
2018-05-18T03:33:29.228Z,8.23
2018-05-18T03:35:57.583Z,8.47
2018-05-18T03:38:26.830Z,7.90
2018-05-18T03:40:55.181Z,8.43
2018-05-18T03:43:24.295Z,7.97
2018-05-18T03:45:52.657Z,7.83
2018-05-18T03:48:21.809Z,7.40
2018-05-18T03:50:50.540Z,7.77
2018-05-18T03:53:19.699Z,6.57
2018-05-18T03:55:48.096Z,6.43
2018-05-18T03:58:17.246Z,7.70
2018-05-18T04:00:45.559Z,6.73
2018-05-18T04:03:31.562Z,6.97
2018-05-18T04:06:17.722Z,7.40
2018-05-18T04:08:53.169Z,6.80
2018-05-18T04:11:21.516Z,7.93
2018-05-18T04:13:50.809Z,7.63
2018-05-18T04:16:19.892Z,7.60
2018-05-18T04:18:48.232Z,7.60
2018-05-18T04:21:16.577Z,7.30
2018-05-18T04:23:44.975Z,7.30
2018-05-18T04:26:13.433Z,6.20
2018-05-18T04:28:42.595Z,7.00
2018-05-18T04:31:10.974Z,7.07
2018-05-18T04:33:39.333Z,7.23
2018-05-18T04:36:07.681Z,6.63
2018-05-18T04:38:36.803Z,6.13
2018-05-18T04:41:06.091Z,7.17
2018-05-18T04:43:34.574Z,6.80
2018-05-18T04:46:02.949Z,7.17
2018-05-18T04:48:31.288Z,6.77
2018-05-18T04:51:00.433Z,6.50
2018-05-18T04:53:28.840Z,6.47
2018-05-18T04:55:57.175Z,6.10
2018-05-18T04:58:25.537Z,6.80
2018-05-18T05:00:53.866Z,6.60
2018-05-18T05:03:22.205Z,6.47
2018-05-18T05:05:50.558Z,6.17
2018-05-18T05:08:19.678Z,6.50
2018-05-18T05:10:48.081Z,6.70
2018-05-18T05:13:16.464Z,6.37
2018-05-18T05:15:44.780Z,5.73
2018-05-18T05:18:15.312Z,6.10
2018-05-18T05:20:44.404Z,6.87
2018-05-18T05:23:13.497Z,6.40
2018-05-18T05:25:42.622Z,6.63
2018-05-18T05:28:10.982Z,6.50
2018-05-18T05:30:40.100Z,5.57
2018-05-18T05:33:08.467Z,6.13
2018-05-18T05:35:37.607Z,5.50
2018-05-18T05:38:05.958Z,6.13
2018-05-18T05:40:34.366Z,5.80
2018-05-18T05:43:02.805Z,5.37
2018-05-18T05:45:31.163Z,7.23
2018-05-18T05:48:00.938Z,8.13
2018-05-18T05:50:29.272Z,5.30
2018-05-18T05:52:58.373Z,5.97
2018-05-18T05:55:27.569Z,6.83
2018-05-18T05:57:55.924Z,6.20
2018-05-18T06:00:25.597Z,5.73
2018-05-18T06:02:53.942Z,6.03
2018-05-18T06:05:22.297Z,5.93
2018-05-18T06:07:51.503Z,5.87
2018-05-18T06:10:19.832Z,5.40
2018-05-18T06:12:48.201Z,5.47
2018-05-18T06:15:16.588Z,5.67
2018-05-18T06:17:44.925Z,6.00
2018-05-18T06:20:13.267Z,5.70
2018-05-18T06:22:42.348Z,5.83
2018-05-18T06:25:10.713Z,6.17
2018-05-18T06:27:39.045Z,5.87
2018-05-18T06:30:08.196Z,5.87
2018-05-18T06:32:36.523Z,5.20
2018-05-18T06:35:04.971Z,5.90
2018-05-18T06:37:33.365Z,5.37
2018-05-18T06:40:02.570Z,5.63
2018-05-18T06:42:30.938Z,5.80
2018-05-18T06:45:00.791Z,6.07
2018-05-18T06:47:29.141Z,6.30
2018-05-18T06:49:58.254Z,5.50
2018-05-18T06:52:26.605Z,6.13
2018-05-18T06:54:55.838Z,6.37
2018-05-18T06:57:24.235Z,6.40
2018-05-18T06:59:52.623Z,6.47
2018-05-18T07:02:21.081Z,6.40
2018-05-18T07:04:49.462Z,6.37
2018-05-18T07:07:19.283Z,6.53
2018-05-18T07:09:48.640Z,6.33
2018-05-18T07:12:17.851Z,6.10
2018-05-18T07:14:47.044Z,6.13
2018-05-18T07:17:16.896Z,5.83
2018-05-18T07:19:46.065Z,5.83
2018-05-18T07:22:14.417Z,6.10
2018-05-18T07:24:43.559Z,5.70
2018-05-18T07:27:11.908Z,6.00
2018-05-18T07:29:41.038Z,6.30
2018-05-18T07:32:09.402Z,6.93
2018-05-18T07:34:37.743Z,6.17
2018-05-18T07:37:06.904Z,6.20
2018-05-18T07:39:35.239Z,6.23
2018-05-18T07:42:04.381Z,7.27
2018-05-18T07:44:32.759Z,6.10
2018-05-18T07:47:01.122Z,6.63
2018-05-18T07:49:29.579Z,5.80
2018-05-18T07:51:57.988Z,6.10
2018-05-18T07:54:26.347Z,6.03
2018-05-18T07:56:54.706Z,6.23
2018-05-18T07:59:23.862Z,6.30
2018-05-18T08:01:52.212Z,6.30
2018-05-18T08:04:20.602Z,6.63
2018-05-18T08:06:48.947Z,6.60
2018-05-18T08:09:17.312Z,6.90
2018-05-18T08:11:47.104Z,6.60
2018-05-18T08:14:16.205Z,5.70
2018-05-18T08:16:45.393Z,6.77
2018-05-18T08:19:13.790Z,5.97
2018-05-18T08:21:42.592Z,6.30
2018-05-18T08:24:10.883Z,6.37
2018-05-18T08:26:39.250Z,6.07
2018-05-18T08:29:40.085Z,5.53
2018-05-18T08:32:09.193Z,5.20
2018-05-18T08:34:37.554Z,6.20
2018-05-18T08:37:05.976Z,7.20
2018-05-18T08:39:34.373Z,6.40
2018-05-18T08:42:03.469Z,6.10
2018-05-18T08:44:33.041Z,6.03
2018-05-18T08:47:01.392Z,5.77
2018-05-18T08:49:30.479Z,6.20
2018-05-18T08:51:58.889Z,5.80
2018-05-18T08:54:27.960Z,5.53
2018-05-18T08:56:57.708Z,5.70
2018-05-18T08:59:26.114Z,5.50
2018-05-18T09:01:54.505Z,6.23
2018-05-18T09:04:22.955Z,6.63
2018-05-18T09:06:51.296Z,6.90
2018-05-18T09:09:20.399Z,6.17
2018-05-18T09:11:48.752Z,6.90
2018-05-18T09:14:17.098Z,6.90
2018-05-18T09:16:45.490Z,6.80
2018-05-18T09:19:13.851Z,6.13
2018-05-18T09:21:42.225Z,6.07
2018-05-18T09:24:10.873Z,7.00
2018-05-18T09:26:39.975Z,6.37
2018-05-18T09:29:08.380Z,6.43
2018-05-18T09:31:36.757Z,6.07
2018-05-18T09:34:05.112Z,6.60
2018-05-18T09:36:33.451Z,6.43
2018-05-18T09:39:02.404Z,6.73
2018-05-18T09:41:30.752Z,6.13
2018-05-18T09:43:59.843Z,6.83
2018-05-18T09:46:28.222Z,5.83
2018-05-18T09:48:57.390Z,6.70
2018-05-18T09:51:26.072Z,6.40
2018-05-18T09:53:54.420Z,6.37
2018-05-18T09:56:22.758Z,6.77
2018-05-18T09:58:52.739Z,6.73
2018-05-18T10:01:21.199Z,6.10
2018-05-18T10:03:50.338Z,7.00
2018-05-18T10:06:18.732Z,6.63
2018-05-18T10:08:47.847Z,6.80
2018-05-18T10:11:16.231Z,6.20
2018-05-18T10:13:44.567Z,6.10
2018-05-18T10:16:13.219Z,5.47
2018-05-18T10:18:41.635Z,7.03
2018-05-18T10:21:09.999Z,6.13
2018-05-18T10:23:39.346Z,7.03
2018-05-18T10:26:07.681Z,6.83
2018-05-18T10:28:36.022Z,6.20
2018-05-18T10:31:04.406Z,5.97
2018-05-18T10:33:34.278Z,7.13
2018-05-18T10:36:04.209Z,6.87
2018-05-18T10:38:33.469Z,6.03
2018-05-18T10:41:01.907Z,6.30
2018-05-18T10:43:30.243Z,6.00
2018-05-18T10:45:59.316Z,6.37
2018-05-18T10:48:29.201Z,6.23
2018-05-18T10:50:57.597Z,6.80
2018-05-18T10:53:25.943Z,7.10
2018-05-18T10:55:54.282Z,7.17
2018-05-18T10:58:22.937Z,6.27
2018-05-18T11:00:51.299Z,6.53
2018-05-18T11:03:19.667Z,6.20
2018-05-18T11:05:48.033Z,7.43
2018-05-18T11:08:17.188Z,6.10
2018-05-18T11:10:45.560Z,6.60
2018-05-18T11:13:13.957Z,6.23
2018-05-18T11:15:42.332Z,6.90
2018-05-18T11:18:10.685Z,6.77
2018-05-18T11:20:39.030Z,6.40
2018-05-18T11:23:07.520Z,6.90
2018-05-18T11:25:36.679Z,7.33
2018-05-18T11:28:05.841Z,7.20
2018-05-18T11:30:35.019Z,7.73
2018-05-18T11:33:03.430Z,7.00
2018-05-18T11:35:31.722Z,6.97
2018-05-18T11:38:00.966Z,6.97
2018-05-18T11:40:29.312Z,7.03
2018-05-18T11:42:58.435Z,7.20
2018-05-18T11:45:26.788Z,8.53
2018-05-18T11:47:55.890Z,7.73
2018-05-18T11:50:24.976Z,7.70
2018-05-18T11:52:54.137Z,8.13
2018-05-18T11:55:22.560Z,7.47
2018-05-18T11:57:51.713Z,7.37
2018-05-18T12:00:20.073Z,7.10
2018-05-18T12:02:48.474Z,7.87
2018-05-18T12:05:19.133Z,7.93
2018-05-18T12:07:50.763Z,7.27
2018-05-18T12:10:19.171Z,8.27
2018-05-18T12:12:48.285Z,7.87
2018-05-18T12:15:16.631Z,6.90
2018-05-18T12:17:45.053Z,6.93
2018-05-18T12:20:13.797Z,7.20
2018-05-18T12:22:42.921Z,8.43
2018-05-18T12:25:12.011Z,7.93
2018-05-18T12:27:41.164Z,7.90
2018-05-18T12:30:13.640Z,7.30
2018-05-18T12:32:42.042Z,7.53
2018-05-18T12:35:11.836Z,7.70
2018-05-18T12:37:40.258Z,8.83
2018-05-18T12:40:09.336Z,7.47
2018-05-18T12:42:38.530Z,8.30
2018-05-18T12:45:07.628Z,7.90
2018-05-18T12:47:36.004Z,7.63
2018-05-18T12:50:05.165Z,8.07
2018-05-18T12:52:33.487Z,7.33
2018-05-18T12:55:02.706Z,7.43
2018-05-18T12:57:31.084Z,7.00
2018-05-18T12:59:59.412Z,7.60
2018-05-18T13:02:27.783Z,8.23
2018-05-18T13:04:56.117Z,7.57
2018-05-18T13:07:24.473Z,7.50
2018-05-18T13:09:54.687Z,8.10
2018-05-18T13:12:23.154Z,8.30
2018-05-18T13:14:52.196Z,8.27
2018-05-18T13:17:21.313Z,8.17
2018-05-18T13:19:49.760Z,8.17
2018-05-18T13:22:18.944Z,8.17
2018-05-18T13:24:48.132Z,7.47
2018-05-18T13:27:16.727Z,7.30
2018-05-18T13:29:45.726Z,8.23
2018-05-18T13:32:14.866Z,7.37
2018-05-18T13:34:43.244Z,8.07
2018-05-18T13:37:12.652Z,7.30
2018-05-18T13:39:41.080Z,7.50
2018-05-18T13:42:10.242Z,7.13
2018-05-18T13:44:41.008Z,6.80
2018-05-18T13:47:10.365Z,7.63
2018-05-18T13:49:38.772Z,7.27
2018-05-18T13:52:08.159Z,6.90
2018-05-18T13:54:36.600Z,7.57
2018-05-18T13:57:05.344Z,6.87
2018-05-18T13:59:33.803Z,6.43
2018-05-18T14:02:02.161Z,7.13
2018-05-18T14:04:30.564Z,7.60
2018-05-18T14:06:58.918Z,8.10
2018-05-18T14:09:27.426Z,8.00
2018-05-18T14:11:55.837Z,8.13
2018-05-18T14:14:25.721Z,7.67
2018-05-18T14:16:54.071Z,6.77
2018-05-18T14:19:22.450Z,8.73
2018-05-18T14:21:50.800Z,8.10
2018-05-18T14:24:20.625Z,7.93
2018-05-18T14:26:49.731Z,7.80
2018-05-18T14:29:18.779Z,7.97
2018-05-18T14:31:47.199Z,8.80
2018-05-18T14:34:15.620Z,7.40
2018-05-18T14:36:44.122Z,7.03
2018-05-18T14:39:13.571Z,6.73
2018-05-18T14:41:43.807Z,8.30
2018-05-18T14:44:13.380Z,8.27
2018-05-18T14:46:42.521Z,8.23
2018-05-18T14:49:10.860Z,7.30
2018-05-18T14:51:40.298Z,8.30
2018-05-18T14:54:08.639Z,6.80
2018-05-18T14:56:37.864Z,7.30
2018-05-18T14:59:06.310Z,7.53
2018-05-18T15:01:35.414Z,9.97
2018-05-18T15:04:04.980Z,8.40
2018-05-18T15:06:34.866Z,6.87
2018-05-18T15:09:03.555Z,6.57
2018-05-18T15:11:31.952Z,8.27
2018-05-18T15:14:00.329Z,7.70
2018-05-18T15:16:28.727Z,8.10
2018-05-18T15:18:57.093Z,7.57
2018-05-18T15:21:25.957Z,7.57
2018-05-18T15:23:54.410Z,7.63
2018-05-18T15:26:23.551Z,9.17
2018-05-18T15:28:52.836Z,8.67
2018-05-18T15:31:21.279Z,8.37
2018-05-18T15:33:51.163Z,7.97
2018-05-18T15:36:20.353Z,8.87
2018-05-18T15:38:48.680Z,9.30
2018-05-18T15:41:17.555Z,10.07
2018-05-18T15:43:45.948Z,8.50
2018-05-18T15:46:16.234Z,8.70
2018-05-18T15:48:44.667Z,8.80
2018-05-18T15:51:13.255Z,8.50
2018-05-18T15:53:41.609Z,8.60
2018-05-18T15:56:10.758Z,7.60
2018-05-18T15:58:39.173Z,7.93
2018-05-18T16:01:08.336Z,8.37
2018-05-18T16:03:36.721Z,7.80
2018-05-18T16:06:05.934Z,9.53
2018-05-18T16:08:34.298Z,7.77
2018-05-18T16:11:02.639Z,8.17
2018-05-18T16:13:31.230Z,8.00
2018-05-18T16:15:59.580Z,8.70
2018-05-18T16:18:29.339Z,7.93
2018-05-18T16:20:57.788Z,9.00
2018-05-18T16:23:26.481Z,8.27
2018-05-18T16:25:55.820Z,8.83
2018-05-18T16:28:24.260Z,7.87
2018-05-18T16:30:52.694Z,7.83
2018-05-18T16:33:21.697Z,7.83
2018-05-18T16:35:50.802Z,8.67
2018-05-18T16:38:20.082Z,7.67
2018-05-18T16:40:48.646Z,7.77
2018-05-18T16:43:16.969Z,8.07
2018-05-18T16:45:46.071Z,8.73
2018-05-18T16:48:14.421Z,7.60
2018-05-18T16:50:43.596Z,9.03
2018-05-18T16:53:12.693Z,9.20
2018-05-18T16:55:41.136Z,9.53
2018-05-18T16:58:09.569Z,8.87
2018-05-18T17:00:38.259Z,9.03
2018-05-18T17:03:06.634Z,8.80
2018-05-18T17:05:34.967Z,8.90
2018-05-18T17:08:03.332Z,8.83
2018-05-18T17:10:32.270Z,8.40
2018-05-18T17:13:00.616Z,8.60
2018-05-18T17:15:28.993Z,8.53
2018-05-18T17:17:57.421Z,8.27
2018-05-18T17:20:25.988Z,8.03
2018-05-18T17:22:54.332Z,8.67
2018-05-18T17:25:24.262Z,8.57
2018-05-18T17:27:52.630Z,8.93
2018-05-18T17:30:20.978Z,8.50
2018-05-18T17:32:49.443Z,8.43
2018-05-18T17:35:18.578Z,8.50
2018-05-18T17:37:46.989Z,7.73
2018-05-18T17:40:16.111Z,8.50
2018-05-18T17:42:45.231Z,9.27
2018-05-18T17:45:13.714Z,8.00
2018-05-18T17:47:42.173Z,7.97
2018-05-18T17:50:12.075Z,7.57
2018-05-18T17:52:40.420Z,8.10
2018-05-18T17:55:09.836Z,8.10
2018-05-18T17:57:38.213Z,7.70
2018-05-18T18:00:06.589Z,8.20
2018-05-18T18:02:35.683Z,8.30
2018-05-18T18:05:04.040Z,7.67
2018-05-18T18:07:32.400Z,8.13
2018-05-18T18:10:00.986Z,8.13
2018-05-18T18:12:29.457Z,8.27
2018-05-18T18:14:58.546Z,7.87
2018-05-18T18:17:27.701Z,7.90
2018-05-18T18:19:56.412Z,7.67
2018-05-18T18:22:25.591Z,8.37
2018-05-18T18:24:53.918Z,7.57
2018-05-18T18:27:22.291Z,8.10
2018-05-18T18:29:50.656Z,7.53
2018-05-18T18:32:19.781Z,7.67
2018-05-18T18:34:50.293Z,8.43
2018-05-18T18:37:18.679Z,8.10
2018-05-18T18:39:47.039Z,8.30
2018-05-18T18:42:16.188Z,7.57
2018-05-18T18:44:44.527Z,7.77
2018-05-18T18:47:12.963Z,8.20
2018-05-18T18:49:41.488Z,8.37
2018-05-18T18:52:10.647Z,8.37
2018-05-18T18:54:39.120Z,8.50
2018-05-18T18:57:07.550Z,8.27
2018-05-18T18:59:36.687Z,7.90
2018-05-18T19:02:05.073Z,8.00
2018-05-18T19:04:33.469Z,8.83
2018-05-18T19:07:02.657Z,8.07
2018-05-18T19:09:31.035Z,7.87
2018-05-18T19:11:59.449Z,8.50
2018-05-18T19:14:29.186Z,8.20
2018-05-18T19:16:57.562Z,9.10
2018-05-18T19:19:25.920Z,8.63
2018-05-18T19:21:55.067Z,8.33
2018-05-18T19:24:23.495Z,8.03
2018-05-18T19:26:51.818Z,8.23
2018-05-18T19:29:20.986Z,8.67
2018-05-18T19:31:49.340Z,8.37
2018-05-18T19:34:18.444Z,9.20
2018-05-18T19:36:47.588Z,8.80
2018-05-18T19:39:15.935Z,8.63
2018-05-18T19:41:44.277Z,9.13
2018-05-18T19:44:12.670Z,8.83
2018-05-18T19:46:41.832Z,8.97
2018-05-18T19:49:10.264Z,9.70
2018-05-18T19:51:38.608Z,9.03
2018-05-18T19:54:06.998Z,9.50
2018-05-18T19:56:36.271Z,8.90
2018-05-18T19:59:04.680Z,9.23
2018-05-18T20:01:33.840Z,8.70
2018-05-18T20:04:02.249Z,9.00
2018-05-18T20:06:32.238Z,10.37
2018-05-18T20:09:01.783Z,9.57
2018-05-18T20:11:30.948Z,10.00
2018-05-18T20:13:59.387Z,9.63
2018-05-18T20:16:27.778Z,9.33
2018-05-18T20:18:56.238Z,9.93
2018-05-18T20:21:24.589Z,8.43
2018-05-18T20:23:53.393Z,9.50
2018-05-18T20:26:22.518Z,9.80
2018-05-18T20:28:50.839Z,9.90
2018-05-18T20:31:19.339Z,9.03
2018-05-18T20:33:48.546Z,9.77
2018-05-18T20:36:17.700Z,9.67
2018-05-18T20:38:46.823Z,9.93
2018-05-18T20:41:15.166Z,9.63
2018-05-18T20:43:43.562Z,10.13
2018-05-18T20:46:11.949Z,9.73
2018-05-18T20:48:40.514Z,10.27
2018-05-18T20:51:08.905Z,10.27
2018-05-18T20:53:37.271Z,10.07
2018-05-18T20:56:06.737Z,10.50
2018-05-18T20:58:35.374Z,10.70
2018-05-18T21:01:03.690Z,10.53
2018-05-18T21:03:32.063Z,11.20
2018-05-18T21:06:00.503Z,10.97
2018-05-18T21:08:28.874Z,10.73
2018-05-18T21:10:57.221Z,11.50
2018-05-18T21:13:25.602Z,10.50
2018-05-18T21:15:53.936Z,10.90
2018-05-18T21:18:22.296Z,11.17
2018-05-18T21:20:50.707Z,10.77
2018-05-18T21:23:20.212Z,11.53
2018-05-18T21:25:49.347Z,11.10
2018-05-18T21:28:17.725Z,10.70
2018-05-18T21:30:46.125Z,10.83
2018-05-18T21:33:14.519Z,10.77
2018-05-18T21:35:42.929Z,11.07
2018-05-18T21:38:12.091Z,11.33
2018-05-18T21:40:40.814Z,10.70
2018-05-18T21:43:09.926Z,12.43
2018-05-18T21:45:38.265Z,11.53
2018-05-18T21:48:06.606Z,11.57
2018-05-18T21:50:34.955Z,11.93
2018-05-18T21:53:03.295Z,11.97
2018-05-18T21:55:31.654Z,11.40
2018-05-18T21:58:00.043Z,11.93
2018-05-18T22:00:28.409Z,11.77
2018-05-18T22:02:56.775Z,11.73
2018-05-18T22:05:25.141Z,11.80
2018-05-18T22:07:53.528Z,11.53
2018-05-18T22:10:21.883Z,11.87
2018-05-18T22:12:50.264Z,12.03
2018-05-18T22:15:18.642Z,12.00
2018-05-18T22:17:46.984Z,12.40
2018-05-18T22:20:15.357Z,12.20
2018-05-18T22:22:43.740Z,12.27
2018-05-18T22:25:12.103Z,13.13
2018-05-18T22:27:40.520Z,12.70
2018-05-18T22:30:09.651Z,13.07
2018-05-18T22:32:38.065Z,12.87
2018-05-18T22:35:06.437Z,13.43
2018-05-18T22:37:34.828Z,15.10
2018-05-18T22:40:03.181Z,13.20
2018-05-18T22:42:32.367Z,14.43
2018-05-18T22:45:00.813Z,13.77
2018-05-18T22:47:29.185Z,13.80
2018-05-18T22:49:58.340Z,14.50
2018-05-18T22:52:26.662Z,13.27
2018-05-18T22:54:55.801Z,14.47
2018-05-18T22:57:24.142Z,14.07
2018-05-18T22:59:53.266Z,13.77
2018-05-18T23:02:21.656Z,14.57
2018-05-18T23:04:49.993Z,13.13
2018-05-18T23:07:19.120Z,13.90
2018-05-18T23:09:47.503Z,14.33
2018-05-18T23:12:15.835Z,13.23
2018-05-18T23:14:44.160Z,13.27
2018-05-18T23:17:13.298Z,13.97
2018-05-18T23:19:41.667Z,12.83
2018-05-18T23:22:11.495Z,13.43
2018-05-18T23:24:39.978Z,13.07
2018-05-18T23:27:08.324Z,12.77
2018-05-18T23:29:36.658Z,12.77
2018-05-18T23:32:05.036Z,13.57
2018-05-18T23:34:34.156Z,12.77
2018-05-18T23:37:02.546Z,13.37
2018-05-18T23:39:30.915Z,12.73
2018-05-18T23:41:59.260Z,12.77
2018-05-18T23:44:28.410Z,11.57
2018-05-18T23:46:57.508Z,12.20
2018-05-18T23:49:25.846Z,12.10
2018-05-18T23:51:54.195Z,12.53
2018-05-18T23:54:22.606Z,12.73
2018-05-18T23:56:50.949Z,12.10
2018-05-18T23:59:19.328Z,12.30
